Airfield :
LOGIN :

Register | Disclaimer

   EN    FR    IT 

 










Legend :    VFR   Marginal VFR   IFR   Intensive IFR   Very Intensive IFR
Visi :
Ceiling :
>= 8 km
>= 3000ft
5 to 8 km
1000 to 3000 ft
1500m to 5 km
500 to 1000 ft
800 to 1500m
200 to 500 ft
< 800m
< 200 ft
Symbols :   Thunderstorms  Fog  Heavy snow  Heavy precipitations  Wind > 20 kt
SIGMETs :     Misc.  Thunderstorms  Icing  Turbulence  Mountain Waves  Volcanic Ashes







- Airport Elevation : 174 ft
- IATA code : RYG


ENRY - Moss , Rygge

CURRENT METAR :
  • 232050Z AUTO 18009KT 9999NDV SCT013/// BKN023/// 11/08 Q1010

EXPIRED METARs :
  • 232020Z AUTO 18010KT 9999NDV BKN013/// BKN017/// OVC068/// 11/08 Q1010
  • 231950Z AUTO 19011KT 160V230 9999NDV OVC014/// 11/08 Q1010
  • 231920Z AUTO 19010KT 9999NDV OVC014/// 11/08 Q1010
  • 231850Z AUTO 19013KT 9999NDV BKN013/// OVC016/// 11/08 Q1010
  • 231820Z AUTO 19010KT 9999NDV BKN012/// BKN018/// 12/09 Q1010

TAF TAF ENRY
Valid from the 23 at 18:00 until the 24 at 18:00 UTC


2318/2418 18012KT 9999 FEW015 BKN030
TEMPO 2318/2409 4000 SHRA BKN006 SCT018CB
BECMG 2409/2411 35008KT
TEMPO 2409/2418 SHRA FEW020CB BKN030
No reported NOTAMs for that airfield.



MET'MAP, your aeronautical weather chart ! - Copyright ORBIFLY December 2007 - Disclaimer

ORBIFLY MET'MAP TEAM :

Programming & Development : Alexandra Zaïnal
Concept & Development : Baudouin d'Aumeries
Co-Development & Prog : Marc-Olivier Méhu
Technical & hardware support : Manuel Goepfert

Contact : metmap@orbifly.com




SOURCES & CREDITS :

   NOAA